createdAt,value
2022-09-30T00:01:50.891Z,1.00
2022-09-30T00:04:24.297Z,1.00
2022-09-30T00:06:52.982Z,1.10
2022-09-30T00:09:21.854Z,1.00
2022-09-30T00:11:49.851Z,0.75
2022-09-30T00:14:20.625Z,0.93
2022-09-30T00:16:49.055Z,0.70
2022-09-30T00:19:17.197Z,0.70
2022-09-30T00:21:45.969Z,0.73
2022-09-30T00:24:13.856Z,0.90
2022-09-30T00:26:41.533Z,0.70
2022-09-30T00:29:11.276Z,0.60
2022-09-30T00:31:39.448Z,0.80
2022-09-30T00:34:07.769Z,0.60
2022-09-30T00:36:46.206Z,0.63
2022-09-30T00:39:21.486Z,0.60
2022-09-30T00:41:52.227Z,0.73
2022-09-30T00:44:42.771Z,0.60
2022-09-30T00:47:21.739Z,0.70
2022-09-30T00:49:50.152Z,0.77
2022-09-30T00:52:18.528Z,0.80
2022-09-30T00:54:46.350Z,0.60
2022-09-30T00:57:14.183Z,0.85
2022-09-30T00:59:47.264Z,0.70
2022-09-30T01:02:15.058Z,0.63
2022-09-30T01:04:44.820Z,0.70
2022-09-30T01:07:15.747Z,0.47
2022-09-30T01:09:44.607Z,0.60
2022-09-30T01:12:21.193Z,0.68
2022-09-30T01:14:53.333Z,0.85
2022-09-30T01:17:44.829Z,0.50
2022-09-30T01:20:18.524Z,0.50
2022-09-30T01:23:07.256Z,0.40
2022-09-30T01:26:02.473Z,0.52
2022-09-30T01:28:42.323Z,0.65
2022-09-30T01:32:04.017Z,0.60
2022-09-30T01:35:07.300Z,0.50
2022-09-30T01:37:50.491Z,0.40
2022-09-30T01:40:36.101Z,0.50
2022-09-30T01:43:32.286Z,0.50
2022-09-30T01:46:05.654Z,0.40
2022-09-30T01:48:41.014Z,0.60
2022-09-30T01:51:23.338Z,0.30
2022-09-30T01:54:00.006Z,0.50
2022-09-30T01:56:44.121Z,0.30
2022-09-30T01:59:21.380Z,0.40
2022-09-30T02:02:25.547Z,0.32
2022-09-30T02:05:02.932Z,0.40
2022-09-30T02:07:41.824Z,0.30
2022-09-30T02:10:38.617Z,0.47
2022-09-30T02:13:21.193Z,0.30
2022-09-30T02:15:55.866Z,0.20
2022-09-30T02:18:39.365Z,0.45
2022-09-30T02:21:09.011Z,0.30
2022-09-30T02:23:42.654Z,0.30
2022-09-30T02:26:25.145Z,0.30
2022-09-30T02:29:13.498Z,0.38
2022-09-30T02:31:45.073Z,0.30
2022-09-30T02:34:16.681Z,0.43
2022-09-30T02:36:52.071Z,0.22
2022-09-30T02:39:42.778Z,0.47
2022-09-30T02:42:34.512Z,0.30
2022-09-30T02:45:08.724Z,0.22
2022-09-30T02:47:58.415Z,0.25
2022-09-30T02:50:43.449Z,0.30
2022-09-30T02:53:33.410Z,0.50
2022-09-30T02:56:13.412Z,0.38
2022-09-30T02:58:43.436Z,0.30
2022-09-30T03:01:14.487Z,0.30
2022-09-30T03:03:57.049Z,0.30
2022-09-30T03:06:25.393Z,0.30
2022-09-30T03:08:53.467Z,0.20
2022-09-30T03:11:25.241Z,0.30
2022-09-30T03:14:24.923Z,0.20
2022-09-30T03:17:17.511Z,0.70
2022-09-30T03:19:54.543Z,2.50
2022-09-30T03:22:51.305Z,2.13
2022-09-30T03:25:43.769Z,1.80
2022-09-30T03:28:26.929Z,1.50
2022-09-30T03:31:04.620Z,1.30
2022-09-30T03:34:10.695Z,1.20
2022-09-30T03:36:51.357Z,0.88
2022-09-30T03:39:28.111Z,0.50
2022-09-30T03:42:10.868Z,0.60
2022-09-30T03:44:54.425Z,0.50
2022-09-30T03:47:25.288Z,0.47
2022-09-30T03:50:00.382Z,0.30
2022-09-30T03:52:31.259Z,0.70
2022-09-30T03:55:02.801Z,0.40
2022-09-30T03:57:31.158Z,0.40
2022-09-30T03:59:59.808Z,0.50
2022-09-30T04:02:28.186Z,0.43
2022-09-30T04:04:56.563Z,0.40
2022-09-30T04:07:24.387Z,0.20
2022-09-30T04:09:52.139Z,0.40
2022-09-30T04:12:20.152Z,0.47
2022-09-30T04:14:47.960Z,0.40
2022-09-30T04:17:15.591Z,0.32
2022-09-30T04:19:43.224Z,0.30
2022-09-30T04:22:11.017Z,0.22
2022-09-30T04:24:39.689Z,0.20
2022-09-30T04:27:07.510Z,0.30
2022-09-30T04:29:35.147Z,0.20
2022-09-30T04:32:03.014Z,0.30
2022-09-30T04:34:31.401Z,0.43
2022-09-30T04:36:59.088Z,0.45
2022-09-30T04:39:26.934Z,0.50
2022-09-30T04:41:54.581Z,0.52
2022-09-30T04:44:22.785Z,0.55
2022-09-30T04:46:51.446Z,0.47
2022-09-30T04:49:19.193Z,0.50
2022-09-30T04:51:46.991Z,0.88
2022-09-30T04:54:16.577Z,1.10
2022-09-30T04:56:44.252Z,0.82
2022-09-30T04:59:12.069Z,1.20
2022-09-30T05:01:40.649Z,1.60
2022-09-30T05:04:08.534Z,2.28
2022-09-30T05:06:36.416Z,3.47
2022-09-30T05:09:04.095Z,4.28
2022-09-30T05:11:31.767Z,4.60
2022-09-30T05:13:59.316Z,4.10
2022-09-30T05:16:28.138Z,3.70
2022-09-30T05:18:55.920Z,2.10
2022-09-30T05:21:23.876Z,1.70
2022-09-30T05:23:53.999Z,1.30
2022-09-30T05:26:21.787Z,1.10
2022-09-30T05:28:49.472Z,0.80
2022-09-30T05:31:17.331Z,1.30
2022-09-30T05:33:46.290Z,1.65
2022-09-30T05:36:16.362Z,1.80
2022-09-30T05:38:44.165Z,4.65
2022-09-30T05:41:13.915Z,6.60
2022-09-30T05:43:45.419Z,6.47
2022-09-30T05:46:13.270Z,6.63
2022-09-30T05:48:41.095Z,3.58
2022-09-30T05:51:09.612Z,3.10
2022-09-30T05:53:39.387Z,4.18
2022-09-30T05:56:10.289Z,5.97
2022-09-30T05:58:40.782Z,6.03
2022-09-30T06:01:13.732Z,6.28
2022-09-30T06:03:45.882Z,5.20
2022-09-30T06:06:15.292Z,4.55
2022-09-30T06:08:43.853Z,3.67
2022-09-30T06:11:14.266Z,3.47
2022-09-30T06:13:42.961Z,3.70
2022-09-30T06:16:12.293Z,3.60
2022-09-30T06:18:41.604Z,2.83
2022-09-30T06:21:14.643Z,2.50
2022-09-30T06:23:43.304Z,2.47
2022-09-30T06:26:13.537Z,2.38
2022-09-30T06:28:42.344Z,1.75
2022-09-30T06:31:10.464Z,2.30
2022-09-30T06:33:38.319Z,1.75
2022-09-30T06:36:07.165Z,1.33
2022-09-30T06:38:40.063Z,1.40
2022-09-30T06:41:08.590Z,1.40
2022-09-30T06:43:41.618Z,1.30
2022-09-30T06:46:25.175Z,1.05
2022-09-30T06:49:14.564Z,0.90
2022-09-30T06:51:42.984Z,1.70
2022-09-30T06:54:11.001Z,1.45
2022-09-30T06:56:38.764Z,1.60
2022-09-30T06:59:07.141Z,1.58
2022-09-30T07:01:34.946Z,1.23
2022-09-30T07:04:08.191Z,1.33
2022-09-30T07:06:35.798Z,1.23
2022-09-30T07:09:03.640Z,0.40
2022-09-30T07:11:31.311Z,0.60
2022-09-30T07:13:59.021Z,0.98
2022-09-30T07:16:26.886Z,1.52
2022-09-30T07:18:54.827Z,2.25
2022-09-30T07:21:22.355Z,2.20
2022-09-30T07:23:51.083Z,1.90
2022-09-30T07:26:22.238Z,1.70
2022-09-30T07:28:50.470Z,1.40
2022-09-30T07:31:38.949Z,1.42
2022-09-30T07:34:08.663Z,2.83
2022-09-30T07:36:38.349Z,4.03
2022-09-30T07:39:09.880Z,4.03
2022-09-30T07:41:39.645Z,3.70
2022-09-30T07:44:12.089Z,3.47
2022-09-30T07:46:40.710Z,2.35
2022-09-30T07:49:13.618Z,1.95
2022-09-30T07:51:45.315Z,1.45
2022-09-30T07:54:18.588Z,1.40
2022-09-30T07:59:38.045Z,1.20
2022-09-30T08:02:07.042Z,1.27
2022-09-30T08:04:37.211Z,1.20
2022-09-30T08:07:06.893Z,1.13
2022-09-30T08:09:35.105Z,1.27
2022-09-30T08:12:04.825Z,1.17
2022-09-30T08:14:32.830Z,1.10
2022-09-30T08:17:00.968Z,1.45
2022-09-30T08:19:30.705Z,1.10
2022-09-30T08:21:58.882Z,1.30
2022-09-30T08:24:27.444Z,1.30
2022-09-30T08:26:56.074Z,1.50
2022-09-30T08:32:11.534Z,1.70
2022-09-30T08:34:39.134Z,2.70
2022-09-30T08:37:09.559Z,3.05
2022-09-30T08:39:40.615Z,3.22
2022-09-30T08:42:39.375Z,3.28
2022-09-30T08:45:43.184Z,3.10
2022-09-30T08:51:21.227Z,8.18
2022-09-30T08:53:49.869Z,6.75
2022-09-30T08:56:27.664Z,6.03
2022-09-30T08:59:27.305Z,5.47
2022-09-30T09:02:29.186Z,4.72
2022-09-30T09:05:03.483Z,3.85
2022-09-30T09:07:34.003Z,3.22
2022-09-30T09:10:32.111Z,2.28
2022-09-30T09:13:44.537Z,1.70
2022-09-30T09:16:21.409Z,2.78
2022-09-30T09:18:58.861Z,2.90
2022-09-30T09:21:36.589Z,2.80
2022-09-30T09:24:11.499Z,2.70
2022-09-30T09:26:39.137Z,3.40
2022-09-30T09:29:12.284Z,3.60
2022-09-30T09:31:39.979Z,3.42
2022-09-30T09:34:12.413Z,2.83
2022-09-30T09:36:49.027Z,2.40
2022-09-30T09:40:11.890Z,2.35
2022-09-30T09:42:42.859Z,1.88
2022-09-30T09:45:37.085Z,1.95
2022-09-30T09:48:13.825Z,2.17
2022-09-30T09:51:20.487Z,2.22
2022-09-30T09:54:01.669Z,2.70
2022-09-30T09:56:32.745Z,2.60
2022-09-30T09:59:20.183Z,1.88
2022-09-30T10:01:55.390Z,2.10
2022-09-30T10:04:28.100Z,2.17
2022-09-30T10:07:23.024Z,1.50
2022-09-30T10:10:07.220Z,1.55
2022-09-30T10:12:35.688Z,1.30
2022-09-30T10:15:15.814Z,1.35
2022-09-30T10:17:43.507Z,1.98
2022-09-30T10:20:24.642Z,2.60
2022-09-30T10:23:01.847Z,3.33
2022-09-30T10:25:29.918Z,3.70
2022-09-30T10:28:00.345Z,4.60
2022-09-30T10:30:36.091Z,5.05
2022-09-30T10:33:11.185Z,4.82
2022-09-30T10:35:52.437Z,4.60
2022-09-30T10:38:20.600Z,4.47
2022-09-30T10:40:51.821Z,3.95
2022-09-30T10:43:24.055Z,7.00
2022-09-30T10:46:13.762Z,9.93
2022-09-30T10:48:41.650Z,8.23
2022-09-30T10:51:24.530Z,5.82
2022-09-30T10:53:52.400Z,5.65
2022-09-30T10:56:41.198Z,6.20
2022-09-30T10:59:44.286Z,5.13
2022-09-30T11:05:18.072Z,2.92
2022-09-30T11:08:03.889Z,2.15
2022-09-30T11:10:31.513Z,1.63
2022-09-30T11:13:07.428Z,1.23
2022-09-30T11:15:48.623Z,1.10
2022-09-30T11:18:23.123Z,1.48
2022-09-30T11:21:00.686Z,2.40
2022-09-30T11:23:46.543Z,1.80
2022-09-30T11:26:20.400Z,3.03
2022-09-30T11:29:02.323Z,2.55
2022-09-30T11:31:56.658Z,1.70
2022-09-30T11:34:27.169Z,2.05
2022-09-30T11:37:11.047Z,1.50
2022-09-30T11:40:01.810Z,1.45
2022-09-30T11:42:44.669Z,1.92
2022-09-30T11:45:37.087Z,1.02
2022-09-30T11:48:32.941Z,0.90
2022-09-30T11:51:09.760Z,0.90
2022-09-30T11:53:44.501Z,1.00
2022-09-30T11:56:38.361Z,0.90
2022-09-30T11:59:17.093Z,1.73
2022-09-30T12:01:48.297Z,1.27
2022-09-30T12:04:33.015Z,1.35
2022-09-30T12:07:07.312Z,1.60
2022-09-30T12:09:44.153Z,1.45
2022-09-30T12:12:16.738Z,1.42
2022-09-30T12:14:50.240Z,1.20
2022-09-30T12:17:39.029Z,1.30
2022-09-30T12:20:18.971Z,1.02
2022-09-30T12:22:48.031Z,1.52
2022-09-30T12:25:24.752Z,1.98
2022-09-30T12:28:39.624Z,1.83
2022-09-30T12:31:23.985Z,1.77
2022-09-30T12:34:04.085Z,1.60
2022-09-30T12:37:02.638Z,1.60
2022-09-30T12:39:30.272Z,1.10
2022-09-30T12:42:12.428Z,2.38
2022-09-30T12:44:46.226Z,3.97
2022-09-30T12:47:28.299Z,2.95
2022-09-30T12:49:59.080Z,1.70
2022-09-30T12:52:34.065Z,1.45
2022-09-30T12:55:08.861Z,1.55
2022-09-30T12:57:41.859Z,4.60
2022-09-30T13:00:22.136Z,13.02
2022-09-30T13:03:00.008Z,17.52
2022-09-30T13:05:46.923Z,16.83
2022-09-30T13:08:25.125Z,11.43
2022-09-30T13:10:59.412Z,8.82
2022-09-30T13:13:32.347Z,6.25
2022-09-30T13:16:04.473Z,4.85
2022-09-30T13:18:32.088Z,3.88
2022-09-30T13:21:05.818Z,2.60
2022-09-30T13:23:39.524Z,1.65
2022-09-30T13:26:34.994Z,1.60
2022-09-30T13:29:02.807Z,4.80
2022-09-30T13:31:53.667Z,3.25
2022-09-30T13:34:28.546Z,1.90
2022-09-30T13:37:06.278Z,1.80
2022-09-30T13:39:53.741Z,1.38
2022-09-30T13:42:24.805Z,2.42
2022-09-30T13:44:59.612Z,3.60
2022-09-30T13:47:53.347Z,3.58
2022-09-30T13:51:00.053Z,3.63
2022-09-30T13:53:34.021Z,2.70
2022-09-30T13:56:20.599Z,2.38
2022-09-30T13:59:15.255Z,1.60
2022-09-30T14:02:00.122Z,1.38
2022-09-30T14:04:49.731Z,1.50
2022-09-30T14:07:47.297Z,1.40
2022-09-30T14:10:22.161Z,1.10
2022-09-30T14:13:00.726Z,1.38
2022-09-30T14:15:57.516Z,0.60
2022-09-30T14:18:50.078Z,0.70
2022-09-30T14:21:35.345Z,0.80
2022-09-30T14:24:21.805Z,0.50
2022-09-30T14:26:55.236Z,0.50
2022-09-30T14:29:42.583Z,0.57
2022-09-30T14:32:18.864Z,0.50
2022-09-30T14:34:49.144Z,0.40
2022-09-30T14:37:28.038Z,0.60
2022-09-30T14:39:57.281Z,0.40
2022-09-30T14:42:38.810Z,0.43
2022-09-30T14:45:07.870Z,0.60
2022-09-30T14:47:40.560Z,0.63
2022-09-30T14:50:17.710Z,0.50
2022-09-30T14:52:48.271Z,0.50
2022-09-30T14:55:27.103Z,0.45
2022-09-30T14:58:23.393Z,0.40
2022-09-30T15:00:58.330Z,0.30
2022-09-30T15:03:28.609Z,0.30
2022-09-30T15:05:58.170Z,0.60
2022-09-30T15:08:26.093Z,0.50
2022-09-30T15:10:56.095Z,0.30
2022-09-30T15:13:29.747Z,0.40
2022-09-30T15:15:58.112Z,0.50
2022-09-30T15:18:37.235Z,0.90
2022-09-30T15:21:09.983Z,1.10
2022-09-30T15:23:41.461Z,1.25
2022-09-30T15:26:12.502Z,1.20
2022-09-30T15:28:40.639Z,1.15
2022-09-30T15:31:34.302Z,1.50
2022-09-30T15:34:13.827Z,1.00
2022-09-30T15:36:41.481Z,0.80
2022-09-30T15:39:23.622Z,0.60
2022-09-30T15:41:52.086Z,0.90
2022-09-30T15:44:38.108Z,0.70
2022-09-30T15:47:09.570Z,0.70
2022-09-30T15:49:41.008Z,0.40
2022-09-30T15:52:45.626Z,0.38
2022-09-30T15:55:42.825Z,0.40
2022-09-30T15:58:33.514Z,0.60
2022-09-30T16:01:25.111Z,0.82
2022-09-30T16:04:07.697Z,0.73
2022-09-30T16:06:38.167Z,0.50
2022-09-30T16:09:21.167Z,0.60
2022-09-30T16:12:12.051Z,0.60
2022-09-30T16:14:58.602Z,0.40
2022-09-30T16:17:26.406Z,0.40
2022-09-30T16:19:59.408Z,0.70
2022-09-30T16:22:36.284Z,0.93
2022-09-30T16:25:11.909Z,0.60
2022-09-30T16:27:39.732Z,0.43
2022-09-30T16:30:08.072Z,0.50
2022-09-30T16:32:39.033Z,0.55
2022-09-30T16:35:13.635Z,0.60
2022-09-30T16:37:43.190Z,0.60
2022-09-30T16:40:25.704Z,0.68
2022-09-30T16:42:58.819Z,0.60
2022-09-30T16:45:28.900Z,0.30
2022-09-30T16:48:01.567Z,0.30
2022-09-30T16:50:40.607Z,0.50
2022-09-30T16:53:10.725Z,0.40
2022-09-30T16:55:38.986Z,0.63
2022-09-30T16:58:06.807Z,0.30
2022-09-30T17:00:34.739Z,0.60
2022-09-30T17:03:02.508Z,0.50
2022-09-30T17:05:30.269Z,0.50
2022-09-30T17:08:01.738Z,0.50
2022-09-30T17:10:35.382Z,0.63
2022-09-30T17:13:03.864Z,0.70
2022-09-30T17:15:33.408Z,0.60
2022-09-30T17:18:07.568Z,0.47
2022-09-30T17:20:37.032Z,0.68
2022-09-30T17:23:07.303Z,0.60
2022-09-30T17:25:41.232Z,1.20
2022-09-30T17:28:11.045Z,0.80
2022-09-30T17:30:40.281Z,0.80
2022-09-30T17:33:10.110Z,1.00
2022-09-30T17:35:41.403Z,1.00
2022-09-30T17:38:10.918Z,0.95
2022-09-30T17:40:57.968Z,0.65
2022-09-30T17:43:25.599Z,1.35
2022-09-30T17:45:56.116Z,1.00
2022-09-30T17:48:24.731Z,0.93
2022-09-30T17:50:56.025Z,1.02
2022-09-30T17:53:24.135Z,1.00
2022-09-30T17:56:20.077Z,1.15
2022-09-30T17:58:50.669Z,0.88
2022-09-30T18:01:20.895Z,0.90
2022-09-30T18:03:53.167Z,1.45
2022-09-30T18:06:21.059Z,1.83
2022-09-30T18:08:50.191Z,1.58
2022-09-30T18:11:23.384Z,1.70
2022-09-30T18:14:02.053Z,1.40
2022-09-30T18:16:33.797Z,1.73
2022-09-30T18:19:04.463Z,1.23
2022-09-30T18:21:34.466Z,1.70
2022-09-30T18:24:02.722Z,2.42
2022-09-30T18:26:33.544Z,2.65
2022-09-30T18:29:05.398Z,2.42
2022-09-30T18:31:37.245Z,2.17
2022-09-30T18:34:06.623Z,1.90
2022-09-30T18:36:35.447Z,2.15
2022-09-30T18:39:03.358Z,2.10
2022-09-30T18:41:34.468Z,1.77
2022-09-30T18:44:03.391Z,2.10
2022-09-30T18:46:32.390Z,2.40
2022-09-30T18:49:00.052Z,3.08
2022-09-30T18:51:28.650Z,3.60
2022-09-30T18:53:59.044Z,3.83
2022-09-30T18:56:32.249Z,5.68
2022-09-30T18:59:04.743Z,5.22
2022-09-30T19:01:34.319Z,6.65
2022-09-30T19:04:03.946Z,7.57
2022-09-30T19:06:32.177Z,5.38
2022-09-30T19:08:59.780Z,4.45
2022-09-30T19:11:28.129Z,4.07
2022-09-30T19:13:59.133Z,6.20
2022-09-30T19:16:28.334Z,6.57
2022-09-30T19:19:01.372Z,6.85
2022-09-30T19:21:28.966Z,9.60
2022-09-30T19:23:58.272Z,13.50
2022-09-30T19:26:30.525Z,10.55
2022-09-30T19:28:58.391Z,9.05
2022-09-30T19:31:26.318Z,7.45
2022-09-30T19:33:57.060Z,7.10
2022-09-30T19:36:27.174Z,6.85
2022-09-30T19:39:10.416Z,5.70
2022-09-30T19:41:39.945Z,5.63
2022-09-30T19:44:07.638Z,5.00
2022-09-30T19:46:35.387Z,4.55
2022-09-30T19:49:03.141Z,4.13
2022-09-30T19:51:33.185Z,3.03
2022-09-30T19:54:06.929Z,2.92
2022-09-30T19:56:38.469Z,3.35
2022-09-30T19:59:06.169Z,5.10
2022-09-30T20:01:35.197Z,6.28
2022-09-30T20:04:05.430Z,6.40
2022-09-30T20:06:34.560Z,6.85
2022-09-30T20:09:05.875Z,7.90
2022-09-30T20:11:37.016Z,7.80
2022-09-30T20:14:25.754Z,8.43
2022-09-30T20:16:54.725Z,7.57
2022-09-30T20:19:23.196Z,8.55
2022-09-30T20:21:54.069Z,8.75
2022-09-30T20:24:21.928Z,15.07
2022-09-30T20:26:50.424Z,22.13
2022-09-30T20:29:19.899Z,19.30
2022-09-30T20:31:48.331Z,16.00
2022-09-30T20:34:17.587Z,13.70
2022-09-30T20:36:45.461Z,11.88
2022-09-30T20:39:15.290Z,9.65
2022-09-30T20:41:43.053Z,9.02
2022-09-30T20:44:14.545Z,7.25
2022-09-30T20:46:43.290Z,6.65
2022-09-30T20:49:11.100Z,5.80
2022-09-30T20:51:38.818Z,4.38
2022-09-30T20:54:06.680Z,4.22
2022-09-30T20:56:55.634Z,4.15
2022-09-30T20:59:23.279Z,23.00
2022-09-30T21:01:52.013Z,34.03
2022-09-30T21:04:19.814Z,91.43
2022-09-30T21:06:47.878Z,144.52
2022-09-30T21:09:15.669Z,133.15
2022-09-30T21:11:43.319Z,90.18
2022-09-30T21:14:11.296Z,60.75
2022-09-30T21:16:39.054Z,45.05
2022-09-30T21:19:06.754Z,50.75
2022-09-30T21:21:35.018Z,314.83
2022-09-30T21:24:03.093Z,368.58
2022-09-30T21:26:30.736Z,347.45
2022-09-30T21:29:00.272Z,210.27
2022-09-30T21:31:28.684Z,135.85
2022-09-30T21:34:01.530Z,92.22
2022-09-30T21:36:29.771Z,51.50
2022-09-30T21:39:03.696Z,29.33
2022-09-30T21:41:32.822Z,17.92
2022-09-30T21:44:01.477Z,10.63
2022-09-30T21:46:29.678Z,8.13
2022-09-30T21:49:15.984Z,6.00
2022-09-30T21:51:43.749Z,6.07
2022-09-30T21:54:13.504Z,5.20
2022-09-30T21:56:42.888Z,5.07
2022-09-30T21:59:11.779Z,5.03
2022-09-30T22:01:39.804Z,5.05
2022-09-30T22:04:08.130Z,7.75
2022-09-30T22:06:35.825Z,8.88
2022-09-30T22:09:05.371Z,8.15
2022-09-30T22:11:33.396Z,8.30
2022-09-30T22:14:01.648Z,8.60
2022-09-30T22:16:34.930Z,8.85
2022-09-30T22:19:07.422Z,11.73
2022-09-30T22:21:37.394Z,11.02
2022-09-30T22:24:09.141Z,10.38
2022-09-30T22:26:37.393Z,9.52
2022-09-30T22:29:11.105Z,7.80
2022-09-30T22:31:39.857Z,6.93
2022-09-30T22:34:26.668Z,7.00
2022-09-30T22:37:13.039Z,8.07
2022-09-30T22:39:40.744Z,8.20
2022-09-30T22:42:08.339Z,8.32
2022-09-30T22:44:37.779Z,6.57
2022-09-30T22:47:09.330Z,6.22
2022-09-30T22:49:37.095Z,5.85
2022-09-30T22:52:06.229Z,5.20
2022-09-30T22:54:35.830Z,4.15
2022-09-30T22:57:04.637Z,5.25
2022-09-30T22:59:32.203Z,4.15
2022-09-30T23:01:59.901Z,4.70
2022-09-30T23:04:31.780Z,5.82
2022-09-30T23:06:59.707Z,5.50
2022-09-30T23:09:27.815Z,5.40
2022-09-30T23:11:57.135Z,4.97
2022-09-30T23:14:25.130Z,4.47
2022-09-30T23:16:52.941Z,4.35
2022-09-30T23:19:20.979Z,4.38
2022-09-30T23:21:48.807Z,4.60
2022-09-30T23:24:16.477Z,4.40
2022-09-30T23:26:44.300Z,4.15
2022-09-30T23:29:13.705Z,3.80
2022-09-30T23:31:42.064Z,3.47
2022-09-30T23:34:09.872Z,4.20
2022-09-30T23:36:38.363Z,4.05
2022-09-30T23:39:18.758Z,4.30
2022-09-30T23:41:47.719Z,4.45
2022-09-30T23:44:19.082Z,5.47
2022-09-30T23:47:14.533Z,6.10
2022-09-30T23:49:43.276Z,5.40
2022-09-30T23:52:13.222Z,4.63
2022-09-30T23:54:44.423Z,4.55
2022-09-30T23:57:12.208Z,4.13
2022-09-30T23:59:40.076Z,3.97
